aviador You're here:

CYZV Decoded Metar

SEPT-ILES in QC, CANADA
Report Time2017-11-21 06:00:00
UTC Time2017-11-21 06:12:02
Flight Rules vfr VFR
Wind270° at 12 kt
W.Decomp.*RWY 31: 11.3 kt HW 4.1 kt LCW
RWY 27: 11.3 kt HW 4.1 kt RCW
W.Rank270° ranks 18
Current wind is above 270° avg. (7.1)
Visibility9999 m
Phenomena:N/A
Clouds:Few 030 Hf
Scattered 100 Hf
Broken 150 Hf
Expected CloudBase > 2,400 ft AGL from Temp-Dew spread
Ceiling15,000 ft
Temp-7°C (ISA -22)
Dew Point-13°C (63% RH)
AAT-14.6°C
QNH1003 hPa
Density Alt-2,129 ft
Elevation180 ft
Report Wrong Elevation
Raw Report
CYZV 210600Z 27012KT 15SM FEW030 SCT100 BKN150 M07/M13 A2963 RMK
SC1AC3AC4 SC TR SLP038=

Extra information for CYZV:More info

Metar Taf Metar & Taf Last 4 Metars F.Rules Stats Wind Profile Meteogram Temp Stats Airport Information Weather charts Add Link Nearby VenuesMetar ALERT Operation Metar Decoded Social comments